createdAt,value
2023-03-17T00:00:32.812Z,95251.00
2023-03-17T03:44:39.279Z,95147.00
2023-03-17T03:48:39.486Z,95149.00
2023-03-17T03:52:39.712Z,95151.00
2023-03-17T03:56:39.876Z,95136.00
2023-03-17T04:00:40.086Z,95132.00
2023-03-17T04:04:40.315Z,95124.00
2023-03-17T04:08:40.539Z,95126.00
2023-03-17T04:12:40.745Z,95118.00
2023-03-17T04:16:43.280Z,95116.00
2023-03-17T04:20:40.668Z,95116.00
2023-03-17T04:24:40.650Z,95118.00
2023-03-17T04:28:40.582Z,95105.00
2023-03-17T04:32:40.664Z,95098.00
2023-03-17T04:36:40.520Z,95100.00
2023-03-17T04:40:40.497Z,95098.00
2023-03-17T04:44:40.538Z,95098.00
2023-03-17T04:48:40.710Z,95097.00
2023-03-17T04:52:40.928Z,95089.00
2023-03-17T04:56:40.908Z,95091.00
2023-03-17T05:00:40.916Z,95091.00
2023-03-17T05:04:40.807Z,95091.00
2023-03-17T05:08:40.762Z,95089.00
2023-03-17T05:12:40.766Z,95089.00
2023-03-17T05:16:40.746Z,95085.00
2023-03-17T05:20:40.809Z,95087.00
2023-03-17T05:24:40.764Z,95091.00
2023-03-17T05:28:40.772Z,95091.00
2023-03-17T05:32:40.739Z,95093.00
2023-03-17T05:36:40.678Z,95089.00
2023-03-17T05:40:40.621Z,95083.00
2023-03-17T05:44:40.606Z,95089.00
2023-03-17T05:48:40.683Z,95087.00
2023-03-17T05:52:40.825Z,95089.00
2023-03-17T05:56:40.786Z,95085.00
2023-03-17T07:52:43.109Z,95059.00
2023-03-17T13:16:47.697Z,94615.00
2023-03-17T13:32:48.240Z,94591.00
2023-03-17T13:36:48.150Z,94591.00
2023-03-17T13:40:48.711Z,94593.00
2023-03-17T13:44:48.557Z,94587.00
2023-03-17T13:48:49.207Z,94587.00
2023-03-17T13:52:49.220Z,94587.00
2023-03-17T13:56:49.274Z,94582.00
2023-03-17T14:00:49.831Z,94580.00
2023-03-17T14:04:49.537Z,94578.00
2023-03-17T14:08:49.749Z,94574.00
2023-03-17T14:12:51.381Z,94570.00
2023-03-17T14:16:50.516Z,94560.00
2023-03-17T14:20:50.724Z,94560.00
2023-03-17T14:24:51.746Z,94556.00
2023-03-17T14:28:50.736Z,94554.00
2023-03-17T14:32:51.001Z,94550.00
2023-03-17T14:36:51.275Z,94542.00
2023-03-17T14:40:50.825Z,94537.00
2023-03-17T14:44:50.787Z,94535.00
2023-03-17T14:48:50.799Z,94540.00
2023-03-17T14:52:50.738Z,94542.00
2023-03-17T14:56:50.708Z,94538.00
2023-03-17T15:00:50.638Z,94542.00
2023-03-17T15:04:50.765Z,94542.00
2023-03-17T15:08:50.585Z,94540.00
2023-03-17T15:12:50.742Z,94538.00
2023-03-17T15:16:50.867Z,94542.00
2023-03-17T15:20:50.769Z,94537.00
2023-03-17T15:24:51.248Z,94535.00
2023-03-17T15:28:51.244Z,94538.00
2023-03-17T15:32:51.315Z,94531.00
2023-03-17T15:36:51.291Z,94533.00
2023-03-17T15:40:50.882Z,94531.00
2023-03-17T15:44:51.254Z,94531.00
2023-03-17T15:48:50.975Z,94525.00
2023-03-17T15:52:51.199Z,94525.00
2023-03-17T15:56:51.218Z,94525.00
2023-03-17T16:00:51.766Z,94525.00
2023-03-17T16:04:51.576Z,94521.00
2023-03-17T16:08:51.560Z,94523.00
2023-03-17T16:12:51.511Z,94521.00
2023-03-17T16:16:51.762Z,94523.00
2023-03-17T16:20:51.421Z,94519.00
2023-03-17T19:16:54.498Z,94627.00
2023-03-17T19:20:54.672Z,94623.00
2023-03-17T19:24:54.862Z,94631.00
2023-03-17T19:28:55.064Z,94632.00
2023-03-17T19:44:55.919Z,94638.00
2023-03-17T19:48:55.875Z,94638.00
2023-03-17T19:52:55.868Z,94638.00
2023-03-17T19:56:56.326Z,94640.00
2023-03-17T20:00:55.777Z,94646.00
2023-03-17T20:04:55.821Z,94644.00
2023-03-17T20:08:55.714Z,94642.00
2023-03-17T20:12:55.868Z,94640.00
2023-03-17T20:16:55.735Z,94642.00
2023-03-17T20:20:55.702Z,94642.00
2023-03-17T20:24:55.684Z,94644.00
2023-03-17T20:28:55.631Z,94642.00
2023-03-17T20:32:55.690Z,94640.00
2023-03-17T20:36:55.553Z,94638.00
2023-03-17T20:40:55.623Z,94634.00
2023-03-17T20:44:55.824Z,94634.00
2023-03-17T20:48:56.029Z,94634.00
2023-03-17T20:52:55.999Z,94636.00
2023-03-17T20:56:55.993Z,94636.00
2023-03-17T21:00:55.917Z,94636.00
2023-03-17T21:04:55.884Z,94634.00
2023-03-17T21:08:55.846Z,94636.00
2023-03-17T21:12:55.837Z,94638.00
2023-03-17T21:16:55.979Z,94646.00
2023-03-17T21:20:55.950Z,94646.00
2023-03-17T21:24:55.921Z,94652.00
2023-03-17T21:28:55.899Z,94654.00
2023-03-17T21:32:55.893Z,94664.00
2023-03-17T21:36:56.004Z,94670.00
2023-03-17T21:40:55.994Z,94668.00
2023-03-17T21:44:55.973Z,94666.00
2023-03-17T21:48:55.897Z,94668.00
2023-03-17T21:56:55.817Z,94672.00
2023-03-17T22:00:55.882Z,94676.00
2023-03-17T22:04:56.000Z,94677.00
2023-03-17T22:08:55.970Z,94691.00
2023-03-17T22:12:55.928Z,94697.00
2023-03-17T22:16:55.982Z,94711.00
2023-03-17T22:20:55.870Z,94703.00
2023-03-17T22:24:55.823Z,94713.00
2023-03-17T22:28:55.822Z,94709.00
2023-03-17T22:32:56.048Z,94715.00
2023-03-17T22:36:55.881Z,94719.00
2023-03-17T22:40:55.843Z,94726.00
2023-03-17T22:44:55.802Z,94726.00
2023-03-17T22:48:55.816Z,94728.00
2023-03-17T22:52:55.735Z,94740.00
2023-03-17T22:56:55.694Z,94734.00
2023-03-17T23:00:55.920Z,94740.00
2023-03-17T23:04:56.090Z,94736.00
2023-03-17T23:08:56.285Z,94744.00
2023-03-17T23:12:56.410Z,94750.00
2023-03-17T23:16:56.642Z,94754.00
2023-03-17T23:20:56.780Z,94768.00
2023-03-17T23:24:56.908Z,94772.00
2023-03-17T23:28:57.051Z,94766.00
2023-03-17T23:32:57.250Z,94770.00
2023-03-17T23:36:57.359Z,94774.00
2023-03-17T23:40:57.513Z,94781.00
2023-03-17T23:44:57.690Z,94791.00
2023-03-17T23:48:57.874Z,94797.00
2023-03-17T23:52:58.118Z,94797.00
2023-03-17T23:56:58.087Z,94801.00
